sensor_id;sensor_type;location;lat;lon;timestamp;P1;durP1;ratioP1;P2;durP2;ratioP2
67442;SDS011;54311;51.726;5.154;2023-05-28T00:00:48;20.80;;;11.80;;
67442;SDS011;54311;51.726;5.154;2023-05-28T00:03:13;23.35;;;12.55;;
67442;SDS011;54311;51.726;5.154;2023-05-28T00:05:42;27.52;;;12.32;;
67442;SDS011;54311;51.726;5.154;2023-05-28T00:08:08;21.80;;;11.65;;
67442;SDS011;54311;51.726;5.154;2023-05-28T00:10:33;20.63;;;11.82;;
67442;SDS011;54311;51.726;5.154;2023-05-28T00:12:58;23.33;;;11.85;;
67442;SDS011;54311;51.726;5.154;2023-05-28T00:15:24;30.80;;;12.45;;
67442;SDS011;54311;51.726;5.154;2023-05-28T00:17:49;24.38;;;12.27;;
67442;SDS011;54311;51.726;5.154;2023-05-28T00:20:17;32.05;;;13.88;;
67442;SDS011;54311;51.726;5.154;2023-05-28T00:22:43;28.33;;;14.13;;
67442;SDS011;54311;51.726;5.154;2023-05-28T00:25:09;28.80;;;14.55;;
67442;SDS011;54311;51.726;5.154;2023-05-28T00:27:36;31.92;;;14.85;;
67442;SDS011;54311;51.726;5.154;2023-05-28T00:30:01;28.35;;;14.05;;
67442;SDS011;54311;51.726;5.154;2023-05-28T00:32:27;33.80;;;14.55;;
67442;SDS011;54311;51.726;5.154;2023-05-28T00:34:52;29.05;;;14.55;;
67442;SDS011;54311;51.726;5.154;2023-05-28T00:37:17;35.55;;;15.45;;
67442;SDS011;54311;51.726;5.154;2023-05-28T00:39:43;33.38;;;15.20;;
67442;SDS011;54311;51.726;5.154;2023-05-28T00:42:08;27.60;;;14.35;;
67442;SDS011;54311;51.726;5.154;2023-05-28T00:44:35;35.15;;;15.45;;
67442;SDS011;54311;51.726;5.154;2023-05-28T00:47:03;33.85;;;15.18;;
67442;SDS011;54311;51.726;5.154;2023-05-28T00:49:28;29.95;;;14.30;;
67442;SDS011;54311;51.726;5.154;2023-05-28T00:51:54;28.35;;;14.95;;
67442;SDS011;54311;51.726;5.154;2023-05-28T00:54:20;32.80;;;14.65;;
67442;SDS011;54311;51.726;5.154;2023-05-28T00:56:46;33.92;;;13.98;;
67442;SDS011;54311;51.726;5.154;2023-05-28T00:59:13;31.85;;;13.65;;
67442;SDS011;54311;51.726;5.154;2023-05-28T01:01:38;25.42;;;13.88;;
67442;SDS011;54311;51.726;5.154;2023-05-28T01:04:04;25.17;;;13.90;;
67442;SDS011;54311;51.726;5.154;2023-05-28T01:06:30;25.20;;;13.73;;
67442;SDS011;54311;51.726;5.154;2023-05-28T01:08:56;22.80;;;12.88;;
67442;SDS011;54311;51.726;5.154;2023-05-28T01:11:21;27.08;;;13.85;;
67442;SDS011;54311;51.726;5.154;2023-05-28T01:13:48;30.52;;;14.02;;
67442;SDS011;54311;51.726;5.154;2023-05-28T01:16:13;24.38;;;13.13;;
67442;SDS011;54311;51.726;5.154;2023-05-28T01:18:39;24.05;;;14.13;;
67442;SDS011;54311;51.726;5.154;2023-05-28T01:21:05;23.33;;;13.40;;
67442;SDS011;54311;51.726;5.154;2023-05-28T01:23:44;25.92;;;13.32;;
67442;SDS011;54311;51.726;5.154;2023-05-28T01:26:11;25.23;;;12.93;;
67442;SDS011;54311;51.726;5.154;2023-05-28T01:28:37;24.13;;;13.75;;
67442;SDS011;54311;51.726;5.154;2023-05-28T01:31:12;27.80;;;13.85;;
67442;SDS011;54311;51.726;5.154;2023-05-28T01:33:39;30.75;;;14.23;;
67442;SDS011;54311;51.726;5.154;2023-05-28T01:36:07;28.13;;;14.13;;
67442;SDS011;54311;51.726;5.154;2023-05-28T01:38:35;26.50;;;13.20;;
67442;SDS011;54311;51.726;5.154;2023-05-28T01:41:02;29.40;;;13.63;;
67442;SDS011;54311;51.726;5.154;2023-05-28T01:43:28;27.48;;;13.75;;
67442;SDS011;54311;51.726;5.154;2023-05-28T01:45:53;28.02;;;14.23;;
67442;SDS011;54311;51.726;5.154;2023-05-28T01:48:19;27.00;;;13.50;;
67442;SDS011;54311;51.726;5.154;2023-05-28T01:50:45;23.25;;;13.40;;
67442;SDS011;54311;51.726;5.154;2023-05-28T01:53:11;19.98;;;11.60;;
67442;SDS011;54311;51.726;5.154;2023-05-28T01:55:36;32.60;;;12.23;;
67442;SDS011;54311;51.726;5.154;2023-05-28T01:58:01;23.55;;;13.02;;
67442;SDS011;54311;51.726;5.154;2023-05-28T02:00:27;23.02;;;12.27;;
67442;SDS011;54311;51.726;5.154;2023-05-28T02:02:52;23.35;;;12.10;;
67442;SDS011;54311;51.726;5.154;2023-05-28T02:05:18;22.15;;;12.43;;
67442;SDS011;54311;51.726;5.154;2023-05-28T02:07:43;23.48;;;11.95;;
67442;SDS011;54311;51.726;5.154;2023-05-28T02:10:10;21.80;;;11.93;;
67442;SDS011;54311;51.726;5.154;2023-05-28T02:12:35;26.23;;;13.07;;
67442;SDS011;54311;51.726;5.154;2023-05-28T02:15:00;23.02;;;12.88;;
67442;SDS011;54311;51.726;5.154;2023-05-28T02:17:26;28.88;;;12.63;;
67442;SDS011;54311;51.726;5.154;2023-05-28T02:19:52;27.85;;;13.35;;
67442;SDS011;54311;51.726;5.154;2023-05-28T02:22:17;23.27;;;12.75;;
67442;SDS011;54311;51.726;5.154;2023-05-28T02:24:43;24.00;;;12.05;;
67442;SDS011;54311;51.726;5.154;2023-05-28T02:27:08;26.23;;;12.35;;
67442;SDS011;54311;51.726;5.154;2023-05-28T02:29:34;27.42;;;12.93;;
67442;SDS011;54311;51.726;5.154;2023-05-28T02:32:00;25.02;;;12.77;;
67442;SDS011;54311;51.726;5.154;2023-05-28T02:34:26;29.17;;;12.88;;
67442;SDS011;54311;51.726;5.154;2023-05-28T02:36:53;22.58;;;12.13;;
67442;SDS011;54311;51.726;5.154;2023-05-28T02:39:19;29.85;;;12.07;;
67442;SDS011;54311;51.726;5.154;2023-05-28T02:41:44;22.10;;;13.23;;
67442;SDS011;54311;51.726;5.154;2023-05-28T02:44:09;21.40;;;11.82;;
67442;SDS011;54311;51.726;5.154;2023-05-28T02:46:35;25.15;;;12.00;;
67442;SDS011;54311;51.726;5.154;2023-05-28T02:49:00;21.65;;;12.90;;
67442;SDS011;54311;51.726;5.154;2023-05-28T02:51:25;20.95;;;11.45;;
67442;SDS011;54311;51.726;5.154;2023-05-28T02:53:51;29.88;;;13.13;;
67442;SDS011;54311;51.726;5.154;2023-05-28T02:56:16;25.77;;;12.35;;
67442;SDS011;54311;51.726;5.154;2023-05-28T02:58:41;27.58;;;12.82;;
67442;SDS011;54311;51.726;5.154;2023-05-28T03:01:07;25.10;;;12.05;;
67442;SDS011;54311;51.726;5.154;2023-05-28T03:03:32;18.20;;;11.85;;
67442;SDS011;54311;51.726;5.154;2023-05-28T03:05:57;23.40;;;12.23;;
67442;SDS011;54311;51.726;5.154;2023-05-28T03:08:23;24.98;;;11.32;;
67442;SDS011;54311;51.726;5.154;2023-05-28T03:10:48;26.85;;;12.60;;
67442;SDS011;54311;51.726;5.154;2023-05-28T03:13:13;23.83;;;11.80;;
67442;SDS011;54311;51.726;5.154;2023-05-28T03:15:39;29.98;;;13.45;;
67442;SDS011;54311;51.726;5.154;2023-05-28T03:18:04;27.75;;;13.00;;
67442;SDS011;54311;51.726;5.154;2023-05-28T03:20:30;28.27;;;13.07;;
67442;SDS011;54311;51.726;5.154;2023-05-28T03:22:56;28.20;;;11.57;;
67442;SDS011;54311;51.726;5.154;2023-05-28T03:25:22;27.55;;;12.68;;
67442;SDS011;54311;51.726;5.154;2023-05-28T03:27:48;32.83;;;13.02;;
67442;SDS011;54311;51.726;5.154;2023-05-28T03:30:13;22.73;;;12.40;;
67442;SDS011;54311;51.726;5.154;2023-05-28T03:32:39;26.83;;;13.20;;
67442;SDS011;54311;51.726;5.154;2023-05-28T03:35:05;25.67;;;11.93;;
67442;SDS011;54311;51.726;5.154;2023-05-28T03:37:31;31.30;;;12.98;;
67442;SDS011;54311;51.726;5.154;2023-05-28T03:39:57;31.10;;;13.00;;
67442;SDS011;54311;51.726;5.154;2023-05-28T03:42:22;23.45;;;12.20;;
67442;SDS011;54311;51.726;5.154;2023-05-28T03:44:48;24.98;;;12.98;;
67442;SDS011;54311;51.726;5.154;2023-05-28T03:47:13;28.95;;;13.23;;
67442;SDS011;54311;51.726;5.154;2023-05-28T03:49:38;33.83;;;13.60;;
67442;SDS011;54311;51.726;5.154;2023-05-28T03:52:04;23.83;;;12.48;;
67442;SDS011;54311;51.726;5.154;2023-05-28T03:54:30;26.10;;;13.07;;
67442;SDS011;54311;51.726;5.154;2023-05-28T03:56:56;25.15;;;12.90;;
67442;SDS011;54311;51.726;5.154;2023-05-28T03:59:22;23.92;;;12.45;;
67442;SDS011;54311;51.726;5.154;2023-05-28T04:01:47;24.85;;;12.35;;
67442;SDS011;54311;51.726;5.154;2023-05-28T04:04:12;31.48;;;12.75;;
67442;SDS011;54311;51.726;5.154;2023-05-28T04:06:38;25.95;;;13.13;;
67442;SDS011;54311;51.726;5.154;2023-05-28T04:09:03;34.78;;;12.02;;
67442;SDS011;54311;51.726;5.154;2023-05-28T04:11:28;30.75;;;11.98;;
67442;SDS011;54311;51.726;5.154;2023-05-28T04:13:55;28.92;;;13.45;;
67442;SDS011;54311;51.726;5.154;2023-05-28T04:16:20;23.67;;;12.75;;
67442;SDS011;54311;51.726;5.154;2023-05-28T04:18:48;34.63;;;13.85;;
67442;SDS011;54311;51.726;5.154;2023-05-28T04:21:13;24.98;;;12.45;;
67442;SDS011;54311;51.726;5.154;2023-05-28T04:23:39;24.60;;;12.73;;
67442;SDS011;54311;51.726;5.154;2023-05-28T04:26:04;20.05;;;12.68;;
67442;SDS011;54311;51.726;5.154;2023-05-28T04:28:31;25.88;;;12.70;;
67442;SDS011;54311;51.726;5.154;2023-05-28T04:30:58;30.42;;;13.82;;
67442;SDS011;54311;51.726;5.154;2023-05-28T04:33:26;26.27;;;12.55;;
67442;SDS011;54311;51.726;5.154;2023-05-28T04:35:53;24.75;;;13.35;;
67442;SDS011;54311;51.726;5.154;2023-05-28T04:38:19;25.90;;;13.07;;
67442;SDS011;54311;51.726;5.154;2023-05-28T04:40:45;28.60;;;14.05;;
67442;SDS011;54311;51.726;5.154;2023-05-28T04:43:10;23.73;;;13.88;;
67442;SDS011;54311;51.726;5.154;2023-05-28T04:45:36;26.65;;;13.95;;
67442;SDS011;54311;51.726;5.154;2023-05-28T04:48:02;27.60;;;14.55;;
67442;SDS011;54311;51.726;5.154;2023-05-28T04:50:29;26.58;;;13.48;;
67442;SDS011;54311;51.726;5.154;2023-05-28T04:52:55;25.85;;;14.13;;
67442;SDS011;54311;51.726;5.154;2023-05-28T04:55:20;29.40;;;14.27;;
67442;SDS011;54311;51.726;5.154;2023-05-28T04:57:45;26.27;;;14.43;;
67442;SDS011;54311;51.726;5.154;2023-05-28T05:00:11;20.95;;;13.77;;
67442;SDS011;54311;51.726;5.154;2023-05-28T05:02:39;23.70;;;14.80;;
67442;SDS011;54311;51.726;5.154;2023-05-28T05:05:06;25.30;;;14.07;;
67442;SDS011;54311;51.726;5.154;2023-05-28T05:07:34;29.77;;;14.15;;
67442;SDS011;54311;51.726;5.154;2023-05-28T05:10:00;33.95;;;14.60;;
67442;SDS011;54311;51.726;5.154;2023-05-28T05:12:25;32.65;;;13.65;;
67442;SDS011;54311;51.726;5.154;2023-05-28T05:14:51;32.55;;;14.05;;
67442;SDS011;54311;51.726;5.154;2023-05-28T05:17:16;29.13;;;13.23;;
67442;SDS011;54311;51.726;5.154;2023-05-28T05:19:41;28.13;;;11.82;;
67442;SDS011;54311;51.726;5.154;2023-05-28T05:22:07;26.67;;;14.00;;
67442;SDS011;54311;51.726;5.154;2023-05-28T05:24:32;25.30;;;14.13;;
67442;SDS011;54311;51.726;5.154;2023-05-28T05:26:58;25.65;;;12.57;;
67442;SDS011;54311;51.726;5.154;2023-05-28T05:29:23;31.20;;;13.63;;
67442;SDS011;54311;51.726;5.154;2023-05-28T05:31:49;20.80;;;12.82;;
67442;SDS011;54311;51.726;5.154;2023-05-28T05:34:14;26.58;;;13.13;;
67442;SDS011;54311;51.726;5.154;2023-05-28T05:36:39;26.42;;;13.40;;
67442;SDS011;54311;51.726;5.154;2023-05-28T05:39:05;27.02;;;13.13;;
67442;SDS011;54311;51.726;5.154;2023-05-28T05:41:30;22.85;;;12.88;;
67442;SDS011;54311;51.726;5.154;2023-05-28T05:43:55;26.58;;;12.73;;
67442;SDS011;54311;51.726;5.154;2023-05-28T05:46:21;29.65;;;12.30;;
67442;SDS011;54311;51.726;5.154;2023-05-28T05:48:46;27.27;;;12.98;;
67442;SDS011;54311;51.726;5.154;2023-05-28T05:51:11;30.02;;;13.75;;
67442;SDS011;54311;51.726;5.154;2023-05-28T05:53:42;24.63;;;12.18;;
67442;SDS011;54311;51.726;5.154;2023-05-28T05:56:07;22.17;;;12.65;;
67442;SDS011;54311;51.726;5.154;2023-05-28T05:58:33;25.90;;;13.15;;
67442;SDS011;54311;51.726;5.154;2023-05-28T06:00:59;23.00;;;12.73;;
67442;SDS011;54311;51.726;5.154;2023-05-28T06:03:24;23.02;;;12.38;;
67442;SDS011;54311;51.726;5.154;2023-05-28T06:05:50;24.92;;;13.57;;
67442;SDS011;54311;51.726;5.154;2023-05-28T06:08:16;21.75;;;11.95;;
67442;SDS011;54311;51.726;5.154;2023-05-28T06:10:41;24.52;;;12.52;;
67442;SDS011;54311;51.726;5.154;2023-05-28T06:13:07;28.00;;;13.05;;
67442;SDS011;54311;51.726;5.154;2023-05-28T06:15:32;26.23;;;13.00;;
67442;SDS011;54311;51.726;5.154;2023-05-28T06:17:57;26.27;;;13.23;;
67442;SDS011;54311;51.726;5.154;2023-05-28T06:20:23;25.67;;;12.98;;
67442;SDS011;54311;51.726;5.154;2023-05-28T06:22:48;29.10;;;13.30;;
67442;SDS011;54311;51.726;5.154;2023-05-28T06:25:15;28.23;;;14.18;;
67442;SDS011;54311;51.726;5.154;2023-05-28T06:27:41;25.63;;;12.63;;
67442;SDS011;54311;51.726;5.154;2023-05-28T06:30:06;25.70;;;12.80;;
67442;SDS011;54311;51.726;5.154;2023-05-28T06:32:32;33.75;;;13.57;;
67442;SDS011;54311;51.726;5.154;2023-05-28T06:34:58;23.83;;;13.93;;
67442;SDS011;54311;51.726;5.154;2023-05-28T06:37:23;29.70;;;14.30;;
67442;SDS011;54311;51.726;5.154;2023-05-28T06:39:48;26.42;;;13.40;;
67442;SDS011;54311;51.726;5.154;2023-05-28T06:42:14;22.58;;;13.07;;
67442;SDS011;54311;51.726;5.154;2023-05-28T06:44:39;24.15;;;12.27;;
67442;SDS011;54311;51.726;5.154;2023-05-28T06:47:04;27.90;;;12.93;;
67442;SDS011;54311;51.726;5.154;2023-05-28T06:49:30;26.85;;;13.82;;
67442;SDS011;54311;51.726;5.154;2023-05-28T06:51:55;30.90;;;12.65;;
67442;SDS011;54311;51.726;5.154;2023-05-28T06:54:21;27.73;;;13.43;;
67442;SDS011;54311;51.726;5.154;2023-05-28T06:56:46;26.83;;;13.02;;
67442;SDS011;54311;51.726;5.154;2023-05-28T06:59:11;26.98;;;13.13;;
67442;SDS011;54311;51.726;5.154;2023-05-28T07:01:37;20.52;;;12.32;;
67442;SDS011;54311;51.726;5.154;2023-05-28T07:04:02;24.63;;;12.52;;
67442;SDS011;54311;51.726;5.154;2023-05-28T07:06:27;24.83;;;13.30;;
67442;SDS011;54311;51.726;5.154;2023-05-28T07:08:53;22.90;;;12.07;;
67442;SDS011;54311;51.726;5.154;2023-05-28T07:11:18;24.52;;;12.32;;
67442;SDS011;54311;51.726;5.154;2023-05-28T07:13:43;22.08;;;11.50;;
67442;SDS011;54311;51.726;5.154;2023-05-28T07:16:09;22.42;;;11.68;;
67442;SDS011;54311;51.726;5.154;2023-05-28T07:18:35;19.25;;;12.00;;
67442;SDS011;54311;51.726;5.154;2023-05-28T07:21:00;26.88;;;12.27;;
67442;SDS011;54311;51.726;5.154;2023-05-28T07:23:27;21.15;;;11.18;;
67442;SDS011;54311;51.726;5.154;2023-05-28T07:25:52;22.83;;;12.35;;
67442;SDS011;54311;51.726;5.154;2023-05-28T07:28:17;20.63;;;11.70;;
67442;SDS011;54311;51.726;5.154;2023-05-28T07:30:43;23.88;;;11.35;;
67442;SDS011;54311;51.726;5.154;2023-05-28T07:33:08;23.48;;;11.93;;
67442;SDS011;54311;51.726;5.154;2023-05-28T07:35:34;20.70;;;11.40;;
67442;SDS011;54311;51.726;5.154;2023-05-28T07:38:01;22.65;;;11.57;;
67442;SDS011;54311;51.726;5.154;2023-05-28T07:40:26;17.15;;;9.77;;
67442;SDS011;54311;51.726;5.154;2023-05-28T07:42:52;22.40;;;11.55;;
67442;SDS011;54311;51.726;5.154;2023-05-28T07:45:17;20.27;;;10.65;;
67442;SDS011;54311;51.726;5.154;2023-05-28T07:47:42;16.33;;;11.25;;
67442;SDS011;54311;51.726;5.154;2023-05-28T07:50:08;18.05;;;10.43;;
67442;SDS011;54311;51.726;5.154;2023-05-28T07:52:34;21.77;;;11.60;;
67442;SDS011;54311;51.726;5.154;2023-05-28T07:55:01;19.48;;;10.82;;
67442;SDS011;54311;51.726;5.154;2023-05-28T07:57:28;17.45;;;10.25;;
67442;SDS011;54311;51.726;5.154;2023-05-28T07:59:53;15.73;;;11.20;;
67442;SDS011;54311;51.726;5.154;2023-05-28T08:02:19;27.65;;;10.65;;
67442;SDS011;54311;51.726;5.154;2023-05-28T08:04:44;20.80;;;10.82;;
67442;SDS011;54311;51.726;5.154;2023-05-28T08:07:10;17.48;;;9.98;;
67442;SDS011;54311;51.726;5.154;2023-05-28T08:09:37;16.10;;;10.25;;
67442;SDS011;54311;51.726;5.154;2023-05-28T08:12:02;16.65;;;9.95;;
67442;SDS011;54311;51.726;5.154;2023-05-28T08:14:28;21.90;;;10.00;;
67442;SDS011;54311;51.726;5.154;2023-05-28T08:16:53;16.92;;;10.07;;
67442;SDS011;54311;51.726;5.154;2023-05-28T08:19:19;16.92;;;9.35;;
67442;SDS011;54311;51.726;5.154;2023-05-28T08:21:44;23.77;;;10.18;;
67442;SDS011;54311;51.726;5.154;2023-05-28T08:24:10;13.73;;;8.95;;
67442;SDS011;54311;51.726;5.154;2023-05-28T08:26:36;23.52;;;9.23;;
67442;SDS011;54311;51.726;5.154;2023-05-28T08:29:04;16.08;;;8.85;;
67442;SDS011;54311;51.726;5.154;2023-05-28T08:31:32;17.30;;;8.43;;
67442;SDS011;54311;51.726;5.154;2023-05-28T08:33:58;16.60;;;8.38;;
67442;SDS011;54311;51.726;5.154;2023-05-28T08:36:23;18.63;;;7.60;;
67442;SDS011;54311;51.726;5.154;2023-05-28T08:38:48;15.02;;;7.57;;
67442;SDS011;54311;51.726;5.154;2023-05-28T08:41:15;13.02;;;6.97;;
67442;SDS011;54311;51.726;5.154;2023-05-28T08:43:41;15.75;;;8.45;;
67442;SDS011;54311;51.726;5.154;2023-05-28T08:46:07;18.02;;;7.97;;
67442;SDS011;54311;51.726;5.154;2023-05-28T08:48:33;19.52;;;8.02;;
67442;SDS011;54311;51.726;5.154;2023-05-28T08:50:59;16.80;;;8.98;;
67442;SDS011;54311;51.726;5.154;2023-05-28T08:53:25;15.65;;;8.40;;
67442;SDS011;54311;51.726;5.154;2023-05-28T08:55:54;19.60;;;9.45;;
67442;SDS011;54311;51.726;5.154;2023-05-28T08:58:20;16.08;;;8.38;;
67442;SDS011;54311;51.726;5.154;2023-05-28T09:00:46;14.75;;;8.07;;
67442;SDS011;54311;51.726;5.154;2023-05-28T09:03:12;15.65;;;7.88;;
67442;SDS011;54311;51.726;5.154;2023-05-28T09:05:37;19.35;;;8.25;;
67442;SDS011;54311;51.726;5.154;2023-05-28T09:08:06;14.88;;;7.88;;
67442;SDS011;54311;51.726;5.154;2023-05-28T09:10:37;21.65;;;9.15;;
67442;SDS011;54311;51.726;5.154;2023-05-28T09:13:03;17.33;;;8.20;;
67442;SDS011;54311;51.726;5.154;2023-05-28T09:15:29;18.83;;;8.48;;
67442;SDS011;54311;51.726;5.154;2023-05-28T09:17:55;13.85;;;7.25;;
67442;SDS011;54311;51.726;5.154;2023-05-28T09:20:23;20.05;;;7.90;;
67442;SDS011;54311;51.726;5.154;2023-05-28T09:22:58;12.00;;;7.10;;
67442;SDS011;54311;51.726;5.154;2023-05-28T09:25:25;11.57;;;7.00;;
67442;SDS011;54311;51.726;5.154;2023-05-28T09:27:51;16.08;;;7.28;;
67442;SDS011;54311;51.726;5.154;2023-05-28T09:30:18;18.27;;;8.15;;
67442;SDS011;54311;51.726;5.154;2023-05-28T09:32:44;12.88;;;7.18;;
67442;SDS011;54311;51.726;5.154;2023-05-28T09:35:09;22.08;;;6.18;;
67442;SDS011;54311;51.726;5.154;2023-05-28T09:37:35;13.50;;;7.57;;
67442;SDS011;54311;51.726;5.154;2023-05-28T09:40:02;15.65;;;7.80;;
67442;SDS011;54311;51.726;5.154;2023-05-28T09:42:32;13.82;;;7.50;;
67442;SDS011;54311;51.726;5.154;2023-05-28T09:45:10;20.25;;;7.63;;
67442;SDS011;54311;51.726;5.154;2023-05-28T09:47:42;13.45;;;7.43;;
67442;SDS011;54311;51.726;5.154;2023-05-28T09:50:08;16.35;;;7.72;;
67442;SDS011;54311;51.726;5.154;2023-05-28T09:52:34;22.67;;;8.93;;
67442;SDS011;54311;51.726;5.154;2023-05-28T09:55:02;13.23;;;8.35;;
67442;SDS011;54311;51.726;5.154;2023-05-28T09:57:30;20.05;;;8.05;;
67442;SDS011;54311;51.726;5.154;2023-05-28T09:59:56;13.10;;;7.60;;
67442;SDS011;54311;51.726;5.154;2023-05-28T10:04:58;12.77;;;7.03;;
67442;SDS011;54311;51.726;5.154;2023-05-28T10:07:26;14.82;;;7.72;;
67442;SDS011;54311;51.726;5.154;2023-05-28T10:09:53;23.75;;;8.38;;
67442;SDS011;54311;51.726;5.154;2023-05-28T10:12:21;20.27;;;8.63;;
67442;SDS011;54311;51.726;5.154;2023-05-28T10:14:49;14.45;;;7.43;;
67442;SDS011;54311;51.726;5.154;2023-05-28T10:17:14;14.77;;;7.25;;
67442;SDS011;54311;51.726;5.154;2023-05-28T10:19:40;15.00;;;6.93;;
67442;SDS011;54311;51.726;5.154;2023-05-28T10:22:06;14.63;;;7.65;;
67442;SDS011;54311;51.726;5.154;2023-05-28T10:24:32;13.68;;;7.28;;
67442;SDS011;54311;51.726;5.154;2023-05-28T10:26:57;12.05;;;6.88;;
67442;SDS011;54311;51.726;5.154;2023-05-28T10:29:23;27.25;;;7.40;;
67442;SDS011;54311;51.726;5.154;2023-05-28T10:31:56;16.98;;;7.10;;
67442;SDS011;54311;51.726;5.154;2023-05-28T10:34:28;15.13;;;7.03;;
67442;SDS011;54311;51.726;5.154;2023-05-28T10:36:55;23.08;;;7.85;;
67442;SDS011;54311;51.726;5.154;2023-05-28T10:39:20;17.80;;;6.90;;
67442;SDS011;54311;51.726;5.154;2023-05-28T10:41:45;11.20;;;6.30;;
67442;SDS011;54311;51.726;5.154;2023-05-28T10:44:11;18.23;;;7.38;;
67442;SDS011;54311;51.726;5.154;2023-05-28T10:46:37;17.42;;;7.72;;
67442;SDS011;54311;51.726;5.154;2023-05-28T10:49:13;17.58;;;7.22;;
67442;SDS011;54311;51.726;5.154;2023-05-28T10:57:09;10.82;;;6.32;;
67442;SDS011;54311;51.726;5.154;2023-05-28T10:59:45;11.48;;;6.72;;
67442;SDS011;54311;51.726;5.154;2023-05-28T11:02:12;14.70;;;6.60;;
67442;SDS011;54311;51.726;5.154;2023-05-28T11:07:12;18.73;;;7.30;;
67442;SDS011;54311;51.726;5.154;2023-05-28T11:09:38;16.75;;;6.85;;
67442;SDS011;54311;51.726;5.154;2023-05-28T11:12:03;10.18;;;6.32;;
67442;SDS011;54311;51.726;5.154;2023-05-28T11:14:36;19.15;;;7.25;;
67442;SDS011;54311;51.726;5.154;2023-05-28T11:17:06;22.73;;;6.90;;
67442;SDS011;54311;51.726;5.154;2023-05-28T11:19:38;23.83;;;6.82;;
67442;SDS011;54311;51.726;5.154;2023-05-28T11:22:07;17.08;;;6.95;;
67442;SDS011;54311;51.726;5.154;2023-05-28T11:24:49;16.67;;;6.55;;
67442;SDS011;54311;51.726;5.154;2023-05-28T11:27:17;18.10;;;6.68;;
67442;SDS011;54311;51.726;5.154;2023-05-28T11:29:43;12.32;;;5.32;;
67442;SDS011;54311;51.726;5.154;2023-05-28T11:32:08;9.98;;;6.15;;
67442;SDS011;54311;51.726;5.154;2023-05-28T11:34:36;15.98;;;5.93;;
67442;SDS011;54311;51.726;5.154;2023-05-28T11:37:02;14.40;;;6.70;;
67442;SDS011;54311;51.726;5.154;2023-05-28T11:39:30;14.05;;;6.85;;
67442;SDS011;54311;51.726;5.154;2023-05-28T11:41:55;11.38;;;6.55;;
67442;SDS011;54311;51.726;5.154;2023-05-28T11:44:21;17.17;;;7.25;;
67442;SDS011;54311;51.726;5.154;2023-05-28T11:46:50;12.02;;;6.55;;
67442;SDS011;54311;51.726;5.154;2023-05-28T11:49:19;16.13;;;6.40;;
67442;SDS011;54311;51.726;5.154;2023-05-28T11:51:45;15.88;;;6.07;;
67442;SDS011;54311;51.726;5.154;2023-05-28T11:54:10;18.05;;;7.68;;
67442;SDS011;54311;51.726;5.154;2023-05-28T11:56:35;22.67;;;7.15;;
67442;SDS011;54311;51.726;5.154;2023-05-28T11:59:01;15.27;;;6.72;;
67442;SDS011;54311;51.726;5.154;2023-05-28T12:01:27;12.30;;;6.47;;
67442;SDS011;54311;51.726;5.154;2023-05-28T12:04:05;9.23;;;5.70;;
67442;SDS011;54311;51.726;5.154;2023-05-28T12:06:32;17.83;;;7.00;;
67442;SDS011;54311;51.726;5.154;2023-05-28T12:09:07;18.05;;;5.95;;
67442;SDS011;54311;51.726;5.154;2023-05-28T12:11:33;13.70;;;5.90;;
67442;SDS011;54311;51.726;5.154;2023-05-28T12:14:07;12.52;;;5.70;;
67442;SDS011;54311;51.726;5.154;2023-05-28T12:16:45;10.88;;;6.07;;
67442;SDS011;54311;51.726;5.154;2023-05-28T12:19:14;14.75;;;5.50;;
67442;SDS011;54311;51.726;5.154;2023-05-28T12:21:40;10.73;;;5.88;;
67442;SDS011;54311;51.726;5.154;2023-05-28T12:24:12;9.45;;;5.53;;
67442;SDS011;54311;51.726;5.154;2023-05-28T12:26:39;10.68;;;5.03;;
67442;SDS011;54311;51.726;5.154;2023-05-28T12:29:04;11.73;;;5.10;;
67442;SDS011;54311;51.726;5.154;2023-05-28T12:31:30;11.68;;;5.20;;
67442;SDS011;54311;51.726;5.154;2023-05-28T12:33:56;21.20;;;6.55;;
67442;SDS011;54311;51.726;5.154;2023-05-28T12:36:21;18.95;;;7.47;;
67442;SDS011;54311;51.726;5.154;2023-05-28T12:38:47;15.38;;;6.95;;
67442;SDS011;54311;51.726;5.154;2023-05-28T12:41:12;11.82;;;6.18;;
67442;SDS011;54311;51.726;5.154;2023-05-28T12:43:37;14.93;;;6.53;;
67442;SDS011;54311;51.726;5.154;2023-05-28T12:46:03;17.35;;;6.90;;
67442;SDS011;54311;51.726;5.154;2023-05-28T12:48:28;7.95;;;5.35;;
67442;SDS011;54311;51.726;5.154;2023-05-28T12:50:53;12.43;;;5.45;;
67442;SDS011;54311;51.726;5.154;2023-05-28T12:53:19;13.52;;;5.78;;
67442;SDS011;54311;51.726;5.154;2023-05-28T12:55:44;12.32;;;5.68;;
67442;SDS011;54311;51.726;5.154;2023-05-28T12:58:10;13.07;;;5.60;;
67442;SDS011;54311;51.726;5.154;2023-05-28T13:00:35;11.93;;;5.63;;
67442;SDS011;54311;51.726;5.154;2023-05-28T13:03:00;8.90;;;5.75;;
67442;SDS011;54311;51.726;5.154;2023-05-28T13:05:27;10.05;;;5.32;;
67442;SDS011;54311;51.726;5.154;2023-05-28T13:07:54;10.90;;;4.72;;
67442;SDS011;54311;51.726;5.154;2023-05-28T13:10:19;13.35;;;5.45;;
67442;SDS011;54311;51.726;5.154;2023-05-28T13:12:45;12.05;;;5.35;;
67442;SDS011;54311;51.726;5.154;2023-05-28T13:15:10;9.95;;;5.25;;
67442;SDS011;54311;51.726;5.154;2023-05-28T13:17:35;6.63;;;4.95;;
67442;SDS011;54311;51.726;5.154;2023-05-28T13:20:01;10.85;;;5.30;;
67442;SDS011;54311;51.726;5.154;2023-05-28T13:22:30;10.07;;;5.78;;
67442;SDS011;54311;51.726;5.154;2023-05-28T13:25:00;10.75;;;5.75;;
67442;SDS011;54311;51.726;5.154;2023-05-28T13:27:25;16.05;;;5.95;;
67442;SDS011;54311;51.726;5.154;2023-05-28T13:29:50;12.98;;;5.95;;
67442;SDS011;54311;51.726;5.154;2023-05-28T13:32:16;14.05;;;6.00;;
67442;SDS011;54311;51.726;5.154;2023-05-28T13:34:41;11.85;;;5.43;;
67442;SDS011;54311;51.726;5.154;2023-05-28T13:37:06;13.63;;;6.43;;
67442;SDS011;54311;51.726;5.154;2023-05-28T13:39:32;14.32;;;7.30;;
67442;SDS011;54311;51.726;5.154;2023-05-28T13:41:57;13.07;;;6.10;;
67442;SDS011;54311;51.726;5.154;2023-05-28T13:44:23;16.23;;;7.13;;
67442;SDS011;54311;51.726;5.154;2023-05-28T13:46:49;12.60;;;6.15;;
67442;SDS011;54311;51.726;5.154;2023-05-28T13:49:14;12.02;;;6.40;;
67442;SDS011;54311;51.726;5.154;2023-05-28T13:51:40;13.95;;;6.07;;
67442;SDS011;54311;51.726;5.154;2023-05-28T13:54:06;11.77;;;5.60;;
67442;SDS011;54311;51.726;5.154;2023-05-28T13:56:32;15.02;;;6.80;;
67442;SDS011;54311;51.726;5.154;2023-05-28T13:58:58;14.95;;;6.28;;
67442;SDS011;54311;51.726;5.154;2023-05-28T14:01:23;13.32;;;6.10;;
67442;SDS011;54311;51.726;5.154;2023-05-28T14:03:48;10.88;;;6.30;;
67442;SDS011;54311;51.726;5.154;2023-05-28T14:06:14;14.13;;;6.70;;
67442;SDS011;54311;51.726;5.154;2023-05-28T14:08:39;13.50;;;6.65;;
67442;SDS011;54311;51.726;5.154;2023-05-28T14:11:05;15.32;;;6.20;;
67442;SDS011;54311;51.726;5.154;2023-05-28T14:13:30;14.27;;;5.95;;
67442;SDS011;54311;51.726;5.154;2023-05-28T14:15:59;14.82;;;6.82;;
67442;SDS011;54311;51.726;5.154;2023-05-28T14:18:25;15.70;;;6.53;;
67442;SDS011;54311;51.726;5.154;2023-05-28T14:20:50;13.07;;;7.05;;
67442;SDS011;54311;51.726;5.154;2023-05-28T14:23:16;12.35;;;6.78;;
67442;SDS011;54311;51.726;5.154;2023-05-28T14:25:41;12.60;;;6.68;;
67442;SDS011;54311;51.726;5.154;2023-05-28T14:28:06;17.67;;;6.63;;
67442;SDS011;54311;51.726;5.154;2023-05-28T14:30:31;15.82;;;6.82;;
67442;SDS011;54311;51.726;5.154;2023-05-28T14:32:57;13.05;;;7.00;;